createdAt,value
2019-03-04T00:02:06.943Z,99422.17
2019-03-04T00:04:35.476Z,99420.41
2019-03-04T00:07:03.575Z,99422.77
2019-03-04T00:09:31.748Z,99419.44
2019-03-04T00:11:59.938Z,99399.59
2019-03-04T00:14:28.053Z,99405.80
2019-03-04T00:16:56.771Z,99407.77
2019-03-04T00:19:25.025Z,99404.83
2019-03-04T00:21:53.101Z,99390.80
2019-03-04T00:24:21.237Z,99398.02
2019-03-04T00:26:49.410Z,99406.41
2019-03-04T00:29:17.691Z,99408.92
2019-03-04T00:31:45.713Z,99410.28
2019-03-04T00:34:14.234Z,99416.13
2019-03-04T00:36:42.655Z,99405.81
2019-03-04T00:39:11.207Z,99398.59
2019-03-04T00:41:39.842Z,99396.45
2019-03-04T00:44:07.942Z,99393.54
2019-03-04T00:46:36.046Z,99384.74
2019-03-04T00:49:04.236Z,99395.07
2019-03-04T00:51:32.531Z,99394.11
2019-03-04T00:54:00.871Z,99404.83
2019-03-04T00:56:28.995Z,99381.42
2019-03-04T00:58:57.063Z,99363.90
2019-03-04T01:01:25.258Z,99369.52
2019-03-04T01:03:53.403Z,99361.73
2019-03-04T01:06:21.599Z,99367.98
2019-03-04T01:08:49.682Z,99348.47
2019-03-04T01:11:17.797Z,99348.28
2019-03-04T01:13:45.893Z,99353.73
2019-03-04T01:16:14.017Z,99358.39
2019-03-04T01:18:42.483Z,99361.51
2019-03-04T01:21:10.597Z,99355.06
2019-03-04T01:23:39.188Z,99335.98
2019-03-04T01:26:07.327Z,99330.91
2019-03-04T01:28:35.759Z,99317.48
2019-03-04T01:31:04.022Z,99312.80
2019-03-04T01:33:32.145Z,99299.52
2019-03-04T01:36:00.576Z,99295.81
2019-03-04T01:38:28.693Z,99277.11
2019-03-04T01:40:56.771Z,99273.21
2019-03-04T01:43:24.947Z,99269.50
2019-03-04T01:45:53.134Z,99259.95
2019-03-04T01:48:21.270Z,99251.55
2019-03-04T01:50:49.345Z,99243.93
2019-03-04T01:53:17.565Z,99250.95
2019-03-04T01:55:45.703Z,99242.34
2019-03-04T01:58:14.037Z,99232.25
2019-03-04T02:00:42.099Z,99227.12
2019-03-04T02:03:11.112Z,99223.24
2019-03-04T02:05:39.309Z,99223.64
2019-03-04T02:08:07.799Z,99225.59
2019-03-04T02:10:35.930Z,99222.34
2019-03-04T02:13:04.799Z,99216.03
2019-03-04T02:15:33.047Z,99216.63
2019-03-04T02:18:01.107Z,99205.66
2019-03-04T02:20:29.299Z,99198.20
2019-03-04T02:22:57.335Z,99185.34
2019-03-04T02:26:21.418Z,99166.27
2019-03-04T02:28:49.500Z,99174.42
2019-03-04T02:31:18.100Z,99159.38
2019-03-04T02:33:46.290Z,99145.78
2019-03-04T02:36:14.420Z,99135.73
2019-03-04T02:38:42.597Z,99135.56
2019-03-04T02:41:10.699Z,99141.20
2019-03-04T02:43:39.554Z,99130.48
2019-03-04T02:46:07.797Z,99131.47
2019-03-04T02:48:36.757Z,99126.77
2019-03-04T02:51:04.951Z,99105.27
2019-03-04T02:53:33.397Z,99092.19
2019-03-04T02:56:01.593Z,99076.79
2019-03-04T02:58:29.683Z,99074.30
2019-03-04T03:00:58.109Z,99056.55
2019-03-04T03:03:26.224Z,99059.80
2019-03-04T03:05:54.618Z,99063.95
2019-03-04T03:08:22.783Z,99045.94
2019-03-04T03:10:50.963Z,99028.56
2019-03-04T03:13:21.843Z,99029.96
2019-03-04T03:15:49.929Z,99039.75
2019-03-04T03:18:19.403Z,99041.50
2019-03-04T03:20:47.484Z,99039.44
2019-03-04T03:23:15.634Z,99041.70
2019-03-04T03:25:43.979Z,99049.89
2019-03-04T03:28:12.058Z,99043.55
2019-03-04T03:30:40.248Z,99020.37
2019-03-04T03:33:08.435Z,99011.63
2019-03-04T03:35:36.612Z,99002.24
2019-03-04T03:38:04.703Z,98994.46
2019-03-04T03:40:33.210Z,98994.13
2019-03-04T03:43:01.925Z,99017.47
2019-03-04T03:45:30.189Z,98990.90
2019-03-04T03:47:58.305Z,98975.22
2019-03-04T03:50:26.398Z,98965.05
2019-03-04T03:52:54.460Z,98948.70
2019-03-04T03:55:23.297Z,98935.63
2019-03-04T03:57:51.465Z,98926.31
2019-03-04T04:00:20.110Z,98926.97
2019-03-04T04:02:48.227Z,98940.80
2019-03-04T04:05:16.315Z,98936.56
2019-03-04T04:07:44.517Z,98927.55
2019-03-04T04:10:13.213Z,98903.17
2019-03-04T04:12:41.319Z,98910.16
2019-03-04T04:15:09.814Z,98903.29
2019-03-04T04:17:37.898Z,98896.33
2019-03-04T04:20:06.230Z,98878.53
2019-03-04T04:22:34.572Z,98873.55
2019-03-04T04:25:02.913Z,98852.33
2019-03-04T04:27:30.997Z,98857.52
2019-03-04T04:29:59.146Z,98851.70
2019-03-04T04:32:27.335Z,98844.05
2019-03-04T04:34:55.916Z,98858.61
2019-03-04T04:37:23.984Z,98852.94
2019-03-04T04:39:52.131Z,98857.41
2019-03-04T04:42:20.547Z,98848.06
2019-03-04T04:44:48.698Z,98831.41
2019-03-04T04:47:16.924Z,98819.55
2019-03-04T04:49:45.003Z,98814.70
2019-03-04T04:52:13.224Z,98823.06
2019-03-04T04:54:41.300Z,98812.39
2019-03-04T04:57:09.426Z,98788.52
2019-03-04T04:59:37.586Z,98780.61
2019-03-04T05:02:05.699Z,98768.69
2019-03-04T05:04:33.827Z,98757.10
2019-03-04T05:07:01.949Z,98753.09
2019-03-04T05:09:30.059Z,98745.20
2019-03-04T05:11:59.797Z,98732.78
2019-03-04T05:14:28.023Z,98722.58
2019-03-04T05:16:56.410Z,98707.66
2019-03-04T05:19:24.611Z,98687.81
2019-03-04T05:21:52.915Z,98673.41
2019-03-04T05:24:21.125Z,98668.33
2019-03-04T05:26:49.188Z,98673.38
2019-03-04T05:29:17.339Z,98663.31
2019-03-04T05:31:45.434Z,98663.91
2019-03-04T05:34:13.543Z,98655.34
2019-03-04T05:36:41.749Z,98643.00
2019-03-04T05:39:09.869Z,98634.44
2019-03-04T05:41:37.999Z,98622.34
2019-03-04T05:44:06.137Z,98616.94
2019-03-04T05:46:34.217Z,98609.27
2019-03-04T05:49:02.399Z,98618.19
2019-03-04T05:51:30.580Z,98610.89
2019-03-04T05:53:58.711Z,98608.33
2019-03-04T05:56:26.883Z,98609.44
2019-03-04T05:58:55.057Z,98604.53
2019-03-04T06:01:35.019Z,98594.25
2019-03-04T06:04:09.172Z,98590.67
2019-03-04T06:07:00.159Z,98591.84
2019-03-04T06:09:28.327Z,98584.37
2019-03-04T06:11:56.613Z,98583.06
2019-03-04T06:14:25.072Z,98579.81
2019-03-04T06:16:53.155Z,98584.43
2019-03-04T06:19:21.268Z,98577.34
2019-03-04T06:21:50.043Z,98569.25
2019-03-04T06:24:18.218Z,98561.14
2019-03-04T06:26:46.636Z,98547.39
2019-03-04T06:29:14.831Z,98551.85
2019-03-04T06:31:42.950Z,98531.94
2019-03-04T06:34:11.024Z,98531.36
2019-03-04T06:36:39.989Z,98523.75
2019-03-04T06:39:08.275Z,98525.38
2019-03-04T06:41:36.851Z,98511.62
2019-03-04T06:44:05.019Z,98509.73
2019-03-04T06:46:33.127Z,98504.79
2019-03-04T06:49:01.392Z,98491.13
2019-03-04T06:51:42.137Z,98492.55
2019-03-04T06:54:36.903Z,98492.80
2019-03-04T06:57:11.456Z,98485.45
2019-03-04T07:00:52.607Z,98473.67
2019-03-04T07:03:27.861Z,98478.84
2019-03-04T07:05:56.058Z,98464.39
2019-03-04T07:09:00.973Z,98455.72
2019-03-04T07:11:30.275Z,98453.34
2019-03-04T07:13:58.321Z,98449.77
2019-03-04T07:16:26.594Z,98435.44
2019-03-04T07:18:55.495Z,98433.75
2019-03-04T07:21:23.761Z,98429.38
2019-03-04T07:23:51.910Z,98429.72
2019-03-04T07:26:20.009Z,98420.23
2019-03-04T07:28:48.124Z,98416.64
2019-03-04T07:31:16.381Z,98415.44
2019-03-04T07:33:44.757Z,98402.31
2019-03-04T07:36:12.953Z,98392.34
2019-03-04T07:38:56.103Z,98383.01
2019-03-04T07:41:25.059Z,98380.97
2019-03-04T07:43:53.157Z,98370.45
2019-03-04T07:46:21.280Z,98383.95
2019-03-04T07:48:49.417Z,98390.36
2019-03-04T07:51:17.714Z,98385.84
2019-03-04T07:53:46.889Z,98386.27
2019-03-04T07:56:15.416Z,98376.86
2019-03-04T07:58:43.566Z,98389.86
2019-03-04T08:01:11.644Z,98393.87
2019-03-04T08:03:39.859Z,98395.52
2019-03-04T08:06:08.031Z,98396.19
2019-03-04T08:08:44.183Z,98400.53
2019-03-04T08:11:55.109Z,98503.61
2019-03-04T08:14:23.211Z,98509.16
2019-03-04T08:16:51.289Z,98540.67
2019-03-04T08:19:19.477Z,98565.19
2019-03-04T08:21:48.664Z,98591.77
2019-03-04T08:24:16.746Z,98597.95
2019-03-04T08:26:44.869Z,98585.55
2019-03-04T08:29:12.951Z,98586.41
2019-03-04T08:31:41.068Z,98585.23
2019-03-04T08:34:09.433Z,98589.72
2019-03-04T08:36:37.603Z,98600.20
2019-03-04T08:39:08.447Z,98599.03
2019-03-04T08:41:36.534Z,98592.63
2019-03-04T08:44:04.610Z,98585.08
2019-03-04T08:46:33.112Z,98521.27
2019-03-04T08:49:01.175Z,98551.73
2019-03-04T08:51:29.285Z,98543.20
2019-03-04T08:53:57.359Z,98531.14
2019-03-04T08:56:25.427Z,98539.64
2019-03-04T08:58:53.960Z,98540.73
2019-03-04T09:01:22.183Z,98531.17
2019-03-04T09:03:50.359Z,98529.52
2019-03-04T09:06:18.445Z,98527.09
2019-03-04T09:08:46.512Z,98522.85
2019-03-04T09:11:16.078Z,98510.83
2019-03-04T09:13:44.170Z,98512.19
2019-03-04T09:16:12.408Z,98508.79
2019-03-04T09:18:40.467Z,98520.01
2019-03-04T09:21:08.527Z,98530.51
2019-03-04T09:23:36.697Z,98508.23
2019-03-04T09:26:08.528Z,98518.86
2019-03-04T09:28:36.630Z,98504.11
2019-03-04T09:31:04.811Z,98511.11
2019-03-04T09:33:33.367Z,98506.45
2019-03-04T09:36:01.547Z,98486.56
2019-03-04T09:38:29.680Z,98478.70
2019-03-04T09:40:57.734Z,98493.43
2019-03-04T09:43:25.867Z,98503.12
2019-03-04T09:45:53.908Z,98495.04
2019-03-04T09:48:22.122Z,98510.22
2019-03-04T09:50:50.149Z,98499.99
2019-03-04T09:53:18.300Z,98494.38
2019-03-04T09:55:46.466Z,98484.97
2019-03-04T09:58:14.547Z,98480.14
2019-03-04T10:01:16.438Z,98484.97
2019-03-04T10:05:10.185Z,98488.14
2019-03-04T10:07:55.529Z,98482.03
2019-03-04T10:10:51.419Z,98473.83
2019-03-04T10:14:19.585Z,98475.89
2019-03-04T10:18:00.740Z,98466.37
2019-03-04T10:21:09.767Z,98464.55
2019-03-04T10:24:44.792Z,98459.61
2019-03-04T10:28:20.441Z,98459.20
2019-03-04T10:31:34.333Z,98450.27
2019-03-04T10:35:09.598Z,98444.78
2019-03-04T10:38:45.539Z,98440.34
2019-03-04T10:42:07.523Z,98436.04
2019-03-04T10:45:08.590Z,98436.82
2019-03-04T10:47:36.736Z,98444.98
2019-03-04T10:50:06.803Z,98438.91
2019-03-04T10:52:34.956Z,98439.44
2019-03-04T10:55:04.714Z,98462.61
2019-03-04T10:57:33.125Z,98461.51
2019-03-04T11:00:01.218Z,98473.70
2019-03-04T11:02:29.355Z,98486.83
2019-03-04T11:04:57.471Z,98472.08
2019-03-04T11:07:25.963Z,98499.79
2019-03-04T11:09:54.063Z,98514.06
2019-03-04T11:12:22.945Z,98517.24
2019-03-04T11:14:51.353Z,98516.72
2019-03-04T11:17:20.253Z,98526.48
2019-03-04T11:19:49.294Z,98538.36
2019-03-04T11:22:17.772Z,98546.39
2019-03-04T11:24:45.927Z,98560.94
2019-03-04T11:27:14.104Z,98560.34
2019-03-04T11:29:43.364Z,98569.42
2019-03-04T11:32:11.788Z,98566.21
2019-03-04T11:34:39.920Z,98558.90
2019-03-04T11:37:08.022Z,98581.83
2019-03-04T11:39:54.317Z,98575.39
2019-03-04T11:42:22.457Z,98583.47
2019-03-04T11:44:50.562Z,98595.64
2019-03-04T11:47:24.487Z,98595.77
2019-03-04T11:49:53.517Z,98591.71
2019-03-04T11:52:21.909Z,98594.11
2019-03-04T11:54:50.055Z,98599.89
2019-03-04T11:57:18.272Z,98600.86
2019-03-04T11:59:46.457Z,98607.41
2019-03-04T12:02:18.953Z,98606.34
2019-03-04T12:04:47.878Z,98618.58
2019-03-04T12:07:16.804Z,98608.59
2019-03-04T12:09:44.897Z,98598.98
2019-03-04T12:12:13.101Z,98601.92
2019-03-04T12:14:41.171Z,98607.61
2019-03-04T12:17:09.356Z,98607.36
2019-03-04T12:19:37.470Z,98603.33
2019-03-04T12:22:05.583Z,98602.70
2019-03-04T12:24:33.659Z,98603.75
2019-03-04T12:27:01.771Z,98617.67
2019-03-04T12:29:29.894Z,98622.98
2019-03-04T12:32:02.959Z,98606.26
2019-03-04T12:34:31.031Z,98609.80
2019-03-04T12:36:59.231Z,98623.08
2019-03-04T12:39:27.312Z,98623.51
2019-03-04T12:41:55.477Z,98617.00
2019-03-04T12:44:23.548Z,98616.55
2019-03-04T12:46:51.936Z,98626.71
2019-03-04T12:49:20.236Z,98609.16
2019-03-04T12:51:48.382Z,98614.31
2019-03-04T12:54:16.562Z,98631.59
2019-03-04T12:56:44.606Z,98613.06
2019-03-04T12:59:13.102Z,98636.59
2019-03-04T13:01:41.160Z,98644.40
2019-03-04T13:04:09.512Z,98643.66
2019-03-04T13:06:37.693Z,98641.02
2019-03-04T13:09:14.104Z,98637.77
2019-03-04T13:11:36.405Z,98644.45
2019-03-04T13:14:04.497Z,98679.45
2019-03-04T13:16:32.681Z,98661.97
2019-03-04T13:19:01.233Z,98668.16
2019-03-04T13:21:29.627Z,98681.49
2019-03-04T13:23:57.709Z,98680.36
2019-03-04T13:26:26.177Z,98678.43
2019-03-04T13:28:54.467Z,98674.68
2019-03-04T13:31:22.663Z,98673.91
2019-03-04T13:33:50.938Z,98677.23
2019-03-04T13:36:19.068Z,98688.42
2019-03-04T13:38:47.132Z,98694.38
2019-03-04T13:41:16.052Z,98698.91
2019-03-04T13:43:44.143Z,98682.77
2019-03-04T13:46:12.340Z,98702.27
2019-03-04T13:48:40.416Z,98712.79
2019-03-04T13:51:08.821Z,98710.72
2019-03-04T13:53:36.993Z,98710.73
2019-03-04T13:56:05.155Z,98704.31
2019-03-04T13:58:33.233Z,98723.72
2019-03-04T14:01:01.669Z,98716.92
2019-03-04T14:03:29.770Z,98724.66
2019-03-04T14:05:57.860Z,98720.41
2019-03-04T14:08:26.046Z,98713.06
2019-03-04T14:10:54.110Z,98737.67
2019-03-04T14:13:22.202Z,98748.75
2019-03-04T14:15:50.324Z,98754.93
2019-03-04T14:18:18.434Z,98767.18
2019-03-04T14:20:46.589Z,98761.13
2019-03-04T14:23:14.724Z,98758.81
2019-03-04T14:25:42.776Z,98765.38
2019-03-04T14:28:11.468Z,98763.85
2019-03-04T14:30:39.902Z,98771.59
2019-03-04T14:33:08.177Z,98771.21
2019-03-04T14:35:36.211Z,98770.05
2019-03-04T14:38:04.259Z,98779.77
2019-03-04T14:40:33.256Z,98782.64
2019-03-04T14:43:01.331Z,98771.99
2019-03-04T14:45:29.526Z,98788.08
2019-03-04T14:47:57.569Z,98784.41
2019-03-04T14:50:25.795Z,98804.02
2019-03-04T14:52:53.996Z,98804.42
2019-03-04T14:55:22.148Z,98808.30
2019-03-04T14:57:50.562Z,98815.69
2019-03-04T15:00:24.660Z,98812.01
2019-03-04T15:02:52.756Z,98824.63
2019-03-04T15:05:20.879Z,98814.53
2019-03-04T15:07:48.943Z,98822.09
2019-03-04T15:10:17.787Z,98832.55
2019-03-04T15:12:45.848Z,98844.95
2019-03-04T15:15:15.695Z,98842.66
2019-03-04T15:17:43.734Z,98847.48
2019-03-04T15:20:16.862Z,98852.34
2019-03-04T15:22:45.091Z,98858.14
2019-03-04T15:25:21.729Z,98865.14
2019-03-04T15:27:49.902Z,98876.39
2019-03-04T15:30:18.135Z,98876.75
2019-03-04T15:32:46.301Z,98885.84
2019-03-04T15:35:14.516Z,98879.05
2019-03-04T15:37:42.950Z,98894.92
2019-03-04T15:40:11.349Z,98888.69
2019-03-04T15:42:39.677Z,98902.08
2019-03-04T15:45:09.315Z,98894.10
2019-03-04T15:47:38.109Z,98901.09
2019-03-04T15:50:08.012Z,98892.77
2019-03-04T15:52:36.092Z,98895.45
2019-03-04T15:55:04.449Z,98901.83
2019-03-04T15:57:32.709Z,98911.73
2019-03-04T16:00:00.781Z,98929.36
2019-03-04T16:02:29.708Z,98926.06
2019-03-04T16:04:58.050Z,98923.12
2019-03-04T16:07:26.220Z,98940.15
2019-03-04T16:09:54.377Z,98939.34
2019-03-04T16:12:24.870Z,98949.78
2019-03-04T16:14:53.003Z,98951.31
2019-03-04T16:17:21.160Z,98959.78
2019-03-04T16:19:49.242Z,98968.83
2019-03-04T16:22:17.366Z,98970.73
2019-03-04T16:24:45.851Z,98974.00
2019-03-04T16:27:16.746Z,98982.13
2019-03-04T16:29:44.982Z,98981.72
2019-03-04T16:32:13.062Z,98992.22
2019-03-04T16:34:41.212Z,98989.50
2019-03-04T16:37:09.283Z,98995.09
2019-03-04T16:39:37.514Z,98987.38
2019-03-04T16:42:07.268Z,99001.11
2019-03-04T16:44:35.531Z,99011.65
2019-03-04T16:47:03.951Z,99018.05
2019-03-04T16:49:32.083Z,99025.67
2019-03-04T16:52:01.331Z,99032.50
2019-03-04T16:54:29.459Z,99047.82
2019-03-04T16:56:57.558Z,99044.67
2019-03-04T16:59:25.731Z,99045.03
2019-03-04T17:01:53.779Z,99051.00
2019-03-04T17:04:22.268Z,99034.16
2019-03-04T17:06:50.388Z,99059.98
2019-03-04T17:09:19.392Z,99062.38
2019-03-04T17:11:47.566Z,99068.63
2019-03-04T17:14:15.682Z,99077.00
2019-03-04T17:16:43.780Z,99088.64
2019-03-04T17:19:11.880Z,99097.61
2019-03-04T17:21:39.975Z,99100.78
2019-03-04T17:24:08.195Z,99096.52
2019-03-04T17:26:36.287Z,99115.19
2019-03-04T17:29:04.466Z,99112.09
2019-03-04T17:31:32.554Z,99121.40
2019-03-04T17:34:00.966Z,99134.20
2019-03-04T17:36:29.135Z,99134.61
2019-03-04T17:38:57.167Z,99138.45
2019-03-04T17:41:25.291Z,99149.36
2019-03-04T17:43:53.536Z,99152.66
2019-03-04T17:46:21.948Z,99161.58
2019-03-04T17:48:50.064Z,99156.38
2019-03-04T17:51:19.248Z,99169.95
2019-03-04T17:53:47.366Z,99167.81
2019-03-04T17:56:16.265Z,99181.20
2019-03-04T17:58:44.385Z,99182.15
2019-03-04T18:01:12.677Z,99195.31
2019-03-04T18:03:41.109Z,99196.24
2019-03-04T18:06:09.230Z,99195.16
2019-03-04T18:08:37.622Z,99192.63
2019-03-04T18:11:06.460Z,99205.02
2019-03-04T18:13:34.608Z,99220.16
2019-03-04T18:16:03.009Z,99218.75
2019-03-04T18:18:31.265Z,99222.41
2019-03-04T18:20:59.348Z,99225.53
2019-03-04T18:23:27.435Z,99231.91
2019-03-04T18:26:05.709Z,99232.70
2019-03-04T18:29:27.440Z,99241.61
2019-03-04T18:32:40.995Z,99250.89
2019-03-04T18:36:17.689Z,99249.97
2019-03-04T18:39:27.155Z,99260.26
2019-03-04T18:42:46.648Z,99263.92
2019-03-04T18:45:47.094Z,99285.23
2019-03-04T18:49:00.904Z,99284.44
2019-03-04T18:51:31.107Z,99284.95
2019-03-04T18:54:14.254Z,99293.72
2019-03-04T18:56:42.373Z,99305.78
2019-03-04T18:59:10.451Z,99303.12
2019-03-04T19:01:38.758Z,99302.75
2019-03-04T19:04:07.078Z,99316.36
2019-03-04T19:06:35.213Z,99308.02
2019-03-04T19:09:07.583Z,99310.61
2019-03-04T19:11:35.766Z,99317.78
2019-03-04T19:14:04.715Z,99315.23
2019-03-04T19:16:32.934Z,99331.55
2019-03-04T19:19:01.696Z,99331.77
2019-03-04T19:21:29.816Z,99337.02
2019-03-04T19:23:58.657Z,99345.13
2019-03-04T19:26:26.801Z,99341.08
2019-03-04T19:28:54.941Z,99347.05
2019-03-04T19:31:23.008Z,99354.22
2019-03-04T19:33:51.147Z,99352.89
2019-03-04T19:36:19.244Z,99356.90
2019-03-04T19:38:47.438Z,99353.77
2019-03-04T19:41:15.564Z,99366.81
2019-03-04T19:43:43.595Z,99363.75
2019-03-04T19:46:11.663Z,99365.45
2019-03-04T19:48:40.879Z,99365.49
2019-03-04T19:51:09.305Z,99377.55
2019-03-04T19:53:37.412Z,99382.20
2019-03-04T19:56:05.666Z,99375.03
2019-03-04T19:58:35.008Z,99389.94
2019-03-04T20:01:03.835Z,99387.06
2019-03-04T20:03:31.955Z,99388.58
2019-03-04T20:06:01.748Z,99395.36
2019-03-04T20:08:29.873Z,99396.61
2019-03-04T20:10:57.929Z,99408.45
2019-03-04T20:13:26.022Z,99398.80
2019-03-04T20:15:54.196Z,99414.87
2019-03-04T20:18:22.289Z,99419.50
2019-03-04T20:20:50.470Z,99407.47
2019-03-04T20:23:18.514Z,99425.12
2019-03-04T20:25:46.775Z,99422.25
2019-03-04T20:28:14.972Z,99429.11
2019-03-04T20:30:43.051Z,99416.06
2019-03-04T20:33:11.145Z,99433.78
2019-03-04T20:35:39.221Z,99430.27
2019-03-04T20:38:07.604Z,99439.26
2019-03-04T20:40:35.741Z,99426.67
2019-03-04T20:43:03.851Z,99433.98
2019-03-04T20:45:32.067Z,99432.31
2019-03-04T20:48:00.832Z,99435.20
2019-03-04T20:50:28.927Z,99433.80
2019-03-04T20:52:57.129Z,99435.88
2019-03-04T20:55:25.257Z,99437.73
2019-03-04T20:57:53.340Z,99441.99
2019-03-04T21:00:27.842Z,99436.84
2019-03-04T21:02:56.349Z,99457.99
2019-03-04T21:05:25.805Z,99449.80
2019-03-04T21:07:54.797Z,99438.62
2019-03-04T21:10:22.892Z,99458.83
2019-03-04T21:12:51.911Z,99456.71
2019-03-04T21:15:20.571Z,99446.16
2019-03-04T21:17:48.690Z,99454.76
2019-03-04T21:20:17.340Z,99470.98
2019-03-04T21:22:46.217Z,99463.21
2019-03-04T21:26:04.746Z,99475.22
2019-03-04T21:29:51.052Z,99478.55
2019-03-04T21:32:48.543Z,99487.94
2019-03-04T21:36:02.434Z,99490.13
2019-03-04T21:38:32.623Z,99490.22
2019-03-04T21:41:59.027Z,99491.33
2019-03-04T21:45:17.966Z,99497.83
2019-03-04T21:48:05.159Z,99507.25
2019-03-04T21:50:50.655Z,99508.23
2019-03-04T21:53:26.709Z,99512.98
2019-03-04T21:57:02.119Z,99507.34
2019-03-04T21:59:30.241Z,99505.05
2019-03-04T22:02:15.830Z,99511.77
2019-03-04T22:04:44.091Z,99510.41
2019-03-04T22:07:14.783Z,99523.27
2019-03-04T22:09:43.059Z,99519.90
2019-03-04T22:12:13.466Z,99529.02
2019-03-04T22:14:41.881Z,99517.19
2019-03-04T22:17:10.554Z,99526.61
2019-03-04T22:19:38.732Z,99527.10
2019-03-04T22:22:06.888Z,99519.20
2019-03-04T22:24:36.056Z,99533.38
2019-03-04T22:27:04.121Z,99526.38
2019-03-04T22:29:32.834Z,99530.97
2019-03-04T22:32:01.458Z,99525.50
2019-03-04T22:34:30.000Z,99536.94
2019-03-04T22:36:58.128Z,99532.58
2019-03-04T22:39:26.408Z,99534.48
2019-03-04T22:41:54.841Z,99548.09
2019-03-04T22:44:23.387Z,99542.41
2019-03-04T22:46:51.495Z,99548.20
2019-03-04T22:49:19.570Z,99541.68
2019-03-04T22:51:47.632Z,99552.59
2019-03-04T22:54:15.782Z,99549.14
2019-03-04T22:56:44.006Z,99550.72
2019-03-04T22:59:12.205Z,99553.01
2019-03-04T23:01:54.324Z,99550.10
2019-03-04T23:04:53.836Z,99557.13
2019-03-04T23:07:38.276Z,99553.92
2019-03-04T23:10:41.762Z,99557.62
2019-03-04T23:13:49.587Z,99558.16
2019-03-04T23:16:22.042Z,99546.52
2019-03-04T23:18:50.080Z,99555.44
2019-03-04T23:21:18.186Z,99543.18
2019-03-04T23:23:46.277Z,99548.74
2019-03-04T23:26:14.434Z,99550.75
2019-03-04T23:28:42.663Z,99533.06
2019-03-04T23:31:10.912Z,99530.92
2019-03-04T23:33:38.979Z,99549.54
2019-03-04T23:36:07.107Z,99531.23
2019-03-04T23:38:36.030Z,99538.21
2019-03-04T23:41:04.237Z,99530.86
2019-03-04T23:43:32.770Z,99533.83
2019-03-04T23:46:00.837Z,99532.89
2019-03-04T23:48:28.957Z,99538.80
2019-03-04T23:50:57.131Z,99535.30
2019-03-04T23:53:25.307Z,99535.95
2019-03-04T23:55:53.441Z,99535.61
2019-03-04T23:58:21.694Z,99530.70
